Airfield :
LOGIN :

Register | Disclaimer

   EN    FR    IT 

 










Legend :    VFR   Marginal VFR   IFR   Intensive IFR   Very Intensive IFR
Visi :
Ceiling :
>= 8 km
>= 3000ft
5 to 8 km
1000 to 3000 ft
1500m to 5 km
500 to 1000 ft
800 to 1500m
200 to 500 ft
< 800m
< 200 ft
Symbols :   Thunderstorms  Fog  Heavy snow  Heavy precipitations  Wind > 20 kt
SIGMETs :     Misc.  Thunderstorms  Icing  Turbulence  Mountain Waves  Volcanic Ashes







- Airport Elevation : 622 ft
- IATA code : BRS
- Download approach charts


EGGD - Bristol Int.

CURRENT METAR :
  • 151550Z AUTO 34009KT 310V010 9999 OVC022 05/01 Q1006

EXPIRED METARs :
  • 151520Z AUTO 34011KT 9999 BKN023 05/01 Q1005
  • 151450Z AUTO 33010KT 9999 BKN026 05/01 Q1005
  • 151420Z AUTO 33011KT 9999 SCT025 BKN030 05/01 Q1004
  • 151350Z AUTO 33010KT 9999 BKN025 OVC030 05/01 Q1003
  • 151320Z AUTO 34007KT 9999 OVC028 05/01 Q1003
  • 151250Z AUTO 31007KT 270V340 9999 OVC028 05/01 Q1003

TAF TAF EGGD
Valid from the 15 at 12:00 until the 16 at 12:00 UTC


151101Z 1512/1612 32009KT 9999 SCT020
ATIS : +44 1275 473 666
No reported NOTAMs for that airfield.



MET'MAP, your aeronautical weather chart ! - Copyright ORBIFLY December 2007 - Disclaimer

ORBIFLY MET'MAP TEAM :

Programming & Development : Alexandra Zaïnal
Concept & Development : Baudouin d'Aumeries
Co-Development & Prog : Marc-Olivier Méhu
Technical & hardware support : Manuel Goepfert

Contact : metmap@orbifly.com




SOURCES & CREDITS :

   NOAA